Time;durP1;ratioP1;P1;durP2;ratioP2;P2;SDS_P1;SDS_P2;PMS_P1;PMS_P2;Temp;Humidity;BMP_temperature;BMP_pressure;BME280_temperature;BME280_humidity;BME280_pressure;Samples;Min_cycle;Max_cycle;Signal;HPM_P1;HPM_P2
2021/03/27 00:01:33;;;;;;;11.43;8.63;;;;;;;;;;5133254;27;20030;-53
2021/03/27 00:04:13;;;;;;;19.58;10.80;;;;;;;;;;5137389;27;20039;-53
2021/03/27 00:07:13;;;;;;;15.00;9.98;;;;;;;;;;5130932;27;20023;-55
2021/03/27 00:09:57;;;;;;;14.23;10.13;;;;;;;;;;5133819;27;20927;-52
2021/03/27 00:12:36;;;;;;;13.30;10.15;;;;;;;;;;5113369;27;20042;-54
2021/03/27 00:15:26;;;;;;;13.13;9.98;;;;;;;;;;5130586;27;20570;-55
2021/03/27 00:18:23;;;;;;;18.05;10.80;;;;;;;;;;5132198;27;20058;-54
2021/03/27 00:21:04;;;;;;;16.90;10.40;;;;;;;;;;5131656;27;20027;-55
2021/03/27 00:23:36;;;;;;;15.07;10.98;;;;;;;;;;5130495;27;20035;-54
2021/03/27 00:26:13;;;;;;;17.92;10.50;;;;;;;;;;5130576;27;20053;-54
2021/03/27 00:28:45;;;;;;;14.68;11.40;;;;;;;;;;5130377;27;20096;-53
2021/03/27 00:31:16;;;;;;;15.65;10.68;;;;;;;;;;5131074;27;20027;-53
2021/03/27 00:33:48;;;;;;;;;;;;;;;;;;5111914;27;20080;-52
2021/03/27 00:36:46;;;;;;;18.98;11.05;;;;;;;;;;5130816;27;19907;-55
2021/03/27 00:39:14;;;;;;;15.57;10.93;;;;;;;;;;5121940;27;20036;-55
2021/03/27 00:41:51;;;;;;;16.13;10.80;;;;;;;;;;5124735;27;20027;-53
2021/03/27 00:44:19;;;;;;;14.75;11.05;;;;;;;;;;5131963;27;20499;-53
2021/03/27 00:46:46;;;;;;;13.82;11.00;;;;;;;;;;5131092;27;20356;-56
2021/03/27 00:49:16;;;;;;;14.00;11.35;;;;;;;;;;5136568;27;20087;-54
2021/03/27 00:51:48;;;;;;;24.30;12.55;;;;;;;;;;5133581;27;20023;-55
2021/03/27 00:54:16;;;;;;;;;;;;;;;;;;5137348;27;20110;-54
2021/03/27 00:56:54;;;;;;;19.77;11.43;;;;;;;;;;5115041;27;19915;-55
2021/03/27 00:59:27;;;;;;;14.85;11.52;;;;;;;;;;5114928;27;20031;-54
2021/03/27 01:01:55;;;;;;;18.83;11.10;;;;;;;;;;5134623;27;20065;-55
2021/03/27 01:04:25;;;;;;;21.45;12.48;;;;;;;;;;5137946;27;20023;-53
2021/03/27 01:06:54;;;;;;;22.98;11.43;;;;;;;;;;5135447;27;20023;-51
2021/03/27 01:09:28;;;;;;;15.98;11.02;;;;;;;;;;5135935;27;20061;-55
2021/03/27 01:12:15;;;;;;;18.10;12.00;;;;;;;;;;5134825;27;20031;-55
2021/03/27 01:14:45;;;;;;;18.38;11.25;;;;;;;;;;5134710;27;20522;-52
2021/03/27 01:17:16;;;;;;;15.98;11.52;;;;;;;;;;5137511;27;20030;-52
2021/03/27 01:19:51;;;;;;;21.38;10.68;;;;;;;;;;5134964;27;20127;-52
2021/03/27 01:22:18;;;;;;;14.27;11.10;;;;;;;;;;5134944;27;20088;-55
2021/03/27 01:24:45;;;;;;;18.52;9.32;;;;;;;;;;5116550;27;20035;-55
2021/03/27 01:27:21;;;;;;;15.75;10.25;;;;;;;;;;5138175;27;20168;-55
2021/03/27 01:29:58;;;;;;;15.82;10.82;;;;;;;;;;5133123;27;20050;-52
2021/03/27 01:32:31;;;;;;;13.63;9.88;;;;;;;;;;5133842;27;20023;-56
2021/03/27 01:35:25;;;;;;;13.50;10.13;;;;;;;;;;5134275;27;20380;-54
2021/03/27 01:37:59;;;;;;;13.88;10.25;;;;;;;;;;5123718;27;20114;-55
2021/03/27 01:40:39;;;;;;;16.02;9.35;;;;;;;;;;5132785;27;20050;-55
2021/03/27 01:43:27;;;;;;;14.45;9.35;;;;;;;;;;5133312;27;20046;-55
2021/03/27 01:46:04;;;;;;;13.32;8.07;;;;;;;;;;5127083;27;20668;-55
2021/03/27 01:48:47;;;;;;;12.18;8.98;;;;;;;;;;5114990;27;20383;-55
2021/03/27 01:51:37;;;;;;;11.32;7.70;;;;;;;;;;5133754;27;20031;-54
2021/03/27 01:54:13;;;;;;;12.23;7.75;;;;;;;;;;5133097;27;20383;-53
2021/03/27 01:57:13;;;;;;;12.50;8.02;;;;;;;;;;5132944;27;20031;-55
2021/03/27 01:59:45;;;;;;;9.50;8.03;;;;;;;;;;5133551;27;20023;-55
2021/03/27 02:02:26;;;;;;;10.65;7.20;;;;;;;;;;5134619;27;20840;-51
2021/03/27 02:05:06;;;;;;;11.60;6.77;;;;;;;;;;5136083;27;20035;-54
2021/03/27 02:07:53;;;;;;;9.05;6.80;;;;;;;;;;5132402;27;20077;-52
2021/03/27 02:10:37;;;;;;;11.27;7.82;;;;;;;;;;5135781;27;20027;-55
2021/03/27 02:13:14;;;;;;;11.35;7.15;;;;;;;;;;5132552;27;20114;-56
2021/03/27 02:15:52;;;;;;;8.55;6.28;;;;;;;;;;5132307;27;20030;-55
2021/03/27 02:18:28;;;;;;;7.63;5.75;;;;;;;;;;5114395;27;20031;-53
2021/03/27 02:21:18;;;;;;;8.40;5.80;;;;;;;;;;5133785;27;20015;-52
2021/03/27 02:23:55;;;;;;;8.88;6.20;;;;;;;;;;5132754;27;20031;-56
2021/03/27 02:26:54;;;;;;;9.07;6.43;;;;;;;;;;5132130;27;20700;-55
2021/03/27 02:29:28;;;;;;;9.95;6.38;;;;;;;;;;5132499;27;20035;-55
2021/03/27 02:32:11;;;;;;;9.70;6.35;;;;;;;;;;5132518;27;20372;-54
2021/03/27 02:34:40;;;;;;;8.13;5.18;;;;;;;;;;5132190;27;20080;-50
2021/03/27 02:37:16;;;;;;;9.68;6.05;;;;;;;;;;5132547;27;20035;-55
2021/03/27 02:39:49;;;;;;;8.68;5.57;;;;;;;;;;5131806;27;20495;-52
2021/03/27 02:42:24;;;;;;;8.13;5.47;;;;;;;;;;5132129;27;20053;-55
2021/03/27 02:45:00;;;;;;;9.90;5.88;;;;;;;;;;5132531;27;20031;-56
2021/03/27 02:47:43;;;;;;;9.18;5.78;;;;;;;;;;5134894;27;20031;-54
2021/03/27 02:50:18;;;;;;;7.80;5.25;;;;;;;;;;5135542;27;20036;-54
2021/03/27 02:53:15;;;;;;;8.10;4.68;;;;;;;;;;5131495;27;20085;-54
2021/03/27 02:56:08;;;;;;;7.78;5.05;;;;;;;;;;5080164;27;20031;-54
2021/03/27 02:59:29;;;;;;;6.72;4.70;;;;;;;;;;5131809;27;20018;-53
2021/03/27 03:01:58;;;;;;;;;;;;;;;;;;5132818;27;20038;-52
2021/03/27 03:04:38;;;;;;;7.43;3.53;;;;;;;;;;5135473;27;19990;-51
2021/03/27 03:07:21;;;;;;;6.07;3.47;;;;;;;;;;5134619;27;20454;-52
2021/03/27 03:09:56;;;;;;;5.45;3.70;;;;;;;;;;5131578;27;20034;-56
2021/03/27 03:12:43;;;;;;;5.40;3.15;;;;;;;;;;5132781;27;20031;-55
2021/03/27 03:15:18;;;;;;;6.07;2.90;;;;;;;;;;5134677;27;20037;-51
2021/03/27 03:17:50;;;;;;;4.93;2.80;;;;;;;;;;5141097;27;20031;-53
2021/03/27 03:20:27;;;;;;;6.10;2.85;;;;;;;;;;5133960;27;20034;-56
2021/03/27 03:22:56;;;;;;;5.63;2.50;;;;;;;;;;5124874;27;20527;-56
2021/03/27 03:25:25;;;;;;;6.07;2.45;;;;;;;;;;5132712;27;20402;-57
2021/03/27 03:28:15;;;;;;;3.92;1.90;;;;;;;;;;5134730;27;20047;-54
2021/03/27 03:30:58;;;;;;;4.68;2.17;;;;;;;;;;5133242;27;20096;-54
2021/03/27 03:33:40;;;;;;;2.75;1.40;;;;;;;;;;5132344;27;20077;-53
2021/03/27 03:36:10;;;;;;;3.92;1.25;;;;;;;;;;5131765;27;20031;-54
2021/03/27 03:38:47;;;;;;;2.47;1.17;;;;;;;;;;5132230;27;20801;-56
2021/03/27 03:41:46;;;;;;;2.67;1.02;;;;;;;;;;5132006;27;20692;-56
2021/03/27 03:44:12;;;;;;;3.00;1.00;;;;;;;;;;5136016;27;20031;-56
2021/03/27 03:47:11;;;;;;;2.25;0.93;;;;;;;;;;5132737;27;20053;-57
2021/03/27 03:50:09;;;;;;;3.28;1.20;;;;;;;;;;5130936;27;20031;-56
2021/03/27 03:52:58;;;;;;;1.80;0.90;;;;;;;;;;5132420;27;20039;-56
2021/03/27 03:55:30;;;;;;;1.17;0.70;;;;;;;;;;5133310;27;20496;-56
2021/03/27 03:58:09;;;;;;;1.02;0.70;;;;;;;;;;5136343;27;20039;-55
2021/03/27 04:01:04;;;;;;;1.70;0.68;;;;;;;;;;5132053;27;20027;-56
2021/03/27 04:03:53;;;;;;;1.25;0.60;;;;;;;;;;5092565;27;20122;-56
2021/03/27 04:06:27;;;;;;;2.55;0.80;;;;;;;;;;5120170;27;20074;-57
2021/03/27 04:08:56;;;;;;;1.75;0.60;;;;;;;;;;5130663;27;20031;-55
2021/03/27 04:11:44;;;;;;;0.85;0.50;;;;;;;;;;5130936;27;20035;-56
2021/03/27 04:14:14;;;;;;;0.73;0.52;;;;;;;;;;5130216;27;20471;-54
2021/03/27 04:16:43;;;;;;;1.70;0.77;;;;;;;;;;5132385;27;20023;-50
2021/03/27 04:19:21;;;;;;;2.70;0.65;;;;;;;;;;5133641;27;20046;-53
2021/03/27 04:22:10;;;;;;;1.20;0.55;;;;;;;;;;5132559;27;20027;-54
2021/03/27 04:25:12;;;;;;;0.55;0.40;;;;;;;;;;5132433;27;20031;-54
2021/03/27 04:28:01;;;;;;;1.30;0.50;;;;;;;;;;5131909;27;20027;-55
2021/03/27 04:30:34;;;;;;;1.65;0.50;;;;;;;;;;5134228;27;20034;-57
2021/03/27 04:33:12;;;;;;;1.27;0.47;;;;;;;;;;5134429;27;20027;-55
2021/03/27 04:35:53;;;;;;;1.10;0.40;;;;;;;;;;5134574;27;20330;-52
2021/03/27 04:38:18;;;;;;;1.25;0.45;;;;;;;;;;5134313;27;20039;-55
2021/03/27 04:41:05;;;;;;;1.75;0.88;;;;;;;;;;5135046;27;20085;-53
2021/03/27 04:43:40;;;;;;;2.80;1.50;;;;;;;;;;5134836;27;20027;-55
2021/03/27 04:46:34;;;;;;;4.65;2.08;;;;;;;;;;5117590;27;20023;-55
2021/03/27 04:49:18;;;;;;;4.80;2.00;;;;;;;;;;5137393;27;20027;-55
2021/03/27 04:52:07;;;;;;;1.58;0.75;;;;;;;;;;5135119;27;20118;-55
2021/03/27 04:54:32;;;;;;;1.35;0.90;;;;;;;;;;5134199;27;20026;-54
2021/03/27 04:57:00;;;;;;;3.40;1.50;;;;;;;;;;5135054;27;20072;-54
2021/03/27 04:59:50;;;;;;;2.28;0.77;;;;;;;;;;5135282;27;20042;-56
2021/03/27 05:02:21;;;;;;;1.52;0.50;;;;;;;;;;5136137;27;20035;-56
2021/03/27 05:04:52;;;;;;;8.50;1.10;;;;;;;;;;5137655;27;20039;-55
2021/03/27 05:07:28;;;;;;;2.97;1.38;;;;;;;;;;5134868;27;20039;-55
2021/03/27 05:10:23;;;;;;;0.88;0.45;;;;;;;;;;5134683;27;20488;-54
2021/03/27 05:13:26;;;;;;;1.20;0.50;;;;;;;;;;5135926;27;20031;-54
2021/03/27 05:16:12;;;;;;;1.25;0.60;;;;;;;;;;5133715;27;20121;-55
2021/03/27 05:18:53;;;;;;;0.68;0.25;;;;;;;;;;5136166;27;20031;-55
2021/03/27 05:21:36;;;;;;;1.27;0.50;;;;;;;;;;5134703;27;20031;-54
2021/03/27 05:24:11;;;;;;;3.65;0.55;;;;;;;;;;5133947;27;20043;-54
2021/03/27 05:27:03;;;;;;;3.25;0.73;;;;;;;;;;5133402;27;20037;-55
2021/03/27 05:29:37;;;;;;;1.65;0.60;;;;;;;;;;5134149;27;20118;-54
2021/03/27 05:32:03;;;;;;;2.83;0.63;;;;;;;;;;5133489;27;20484;-53
2021/03/27 05:34:34;;;;;;;1.58;0.52;;;;;;;;;;5135654;27;20042;-52
2021/03/27 05:37:30;;;;;;;1.77;0.63;;;;;;;;;;5133688;27;20027;-56
2021/03/27 05:40:17;;;;;;;2.15;0.60;;;;;;;;;;5123443;27;20047;-51
2021/03/27 05:43:01;;;;;;;3.50;0.50;;;;;;;;;;5134029;27;20333;-53
2021/03/27 05:46:04;;;;;;;1.08;0.38;;;;;;;;;;5135557;27;20380;-55
2021/03/27 05:49:02;;;;;;;1.95;0.70;;;;;;;;;;5135159;27;20038;-56
2021/03/27 05:52:04;;;;;;;4.97;0.90;;;;;;;;;;5134058;27;20036;-55
2021/03/27 05:54:54;;;;;;;1.45;0.50;;;;;;;;;;5139271;27;20027;-56
2021/03/27 05:57:40;;;;;;;1.67;0.63;;;;;;;;;;5137663;27;20031;-56
2021/03/27 06:00:24;;;;;;;1.48;0.65;;;;;;;;;;5136400;27;20099;-55
2021/03/27 06:02:57;;;;;;;1.08;0.60;;;;;;;;;;5137752;27;20360;-52
2021/03/27 06:05:34;;;;;;;0.63;0.40;;;;;;;;;;5133491;27;20388;-55
2021/03/27 06:08:21;;;;;;;1.58;0.82;;;;;;;;;;5132949;27;20039;-54
2021/03/27 06:10:58;;;;;;;2.35;0.90;;;;;;;;;;5132564;27;20460;-56
2021/03/27 06:13:29;;;;;;;2.33;1.13;;;;;;;;;;5134077;27;20079;-55
2021/03/27 06:16:13;;;;;;;3.90;1.10;;;;;;;;;;5134739;27;20038;-55
2021/03/27 06:18:59;;;;;;;3.85;1.05;;;;;;;;;;5134033;27;20034;-55
2021/03/27 06:21:52;;;;;;;2.53;0.70;;;;;;;;;;5136648;27;20030;-56
2021/03/27 06:24:39;;;;;;;1.67;0.65;;;;;;;;;;5116801;27;20440;-52
2021/03/27 06:27:13;;;;;;;1.88;0.73;;;;;;;;;;5132931;27;20042;-54
2021/03/27 06:30:02;;;;;;;2.58;0.90;;;;;;;;;;5131936;27;20046;-54
2021/03/27 06:33:05;;;;;;;0.80;0.50;;;;;;;;;;5125110;27;20073;-54
2021/03/27 06:35:47;;;;;;;4.80;1.20;;;;;;;;;;5133693;27;20023;-55
2021/03/27 06:38:30;;;;;;;;;;;;;;;;;;5133225;27;20038;-54
2021/03/27 06:41:06;;;;;;;9.15;1.00;;;;;;;;;;5132244;27;19915;-54
2021/03/27 06:43:50;;;;;;;3.38;0.88;;;;;;;;;;5135391;27;20109;-57
2021/03/27 06:46:37;;;;;;;3.85;0.82;;;;;;;;;;5133103;27;20041;-57
2021/03/27 06:49:31;;;;;;;2.47;0.88;;;;;;;;;;5135402;27;20030;-53
2021/03/27 06:52:16;;;;;;;4.40;0.88;;;;;;;;;;5133975;27;20051;-52
2021/03/27 06:54:57;;;;;;;3.58;0.90;;;;;;;;;;5134812;27;20600;-56
2021/03/27 06:57:41;;;;;;;5.40;1.53;;;;;;;;;;5131458;27;20050;-55
2021/03/27 07:00:24;;;;;;;6.72;1.20;;;;;;;;;;5133329;27;20046;-55
2021/03/27 07:03:05;;;;;;;5.07;1.40;;;;;;;;;;5133074;27;20110;-56
2021/03/27 07:05:33;;;;;;;2.83;1.07;;;;;;;;;;5135702;27;20045;-55
2021/03/27 07:08:28;;;;;;;3.13;1.10;;;;;;;;;;5134834;27;20035;-54
2021/03/27 07:11:19;;;;;;;4.22;1.00;;;;;;;;;;5137935;27;20123;-53
2021/03/27 07:13:47;;;;;;;4.35;1.42;;;;;;;;;;5138491;27;20042;-54
2021/03/27 07:16:36;;;;;;;5.63;2.40;;;;;;;;;;5132211;27;20027;-56
2021/03/27 07:19:32;;;;;;;4.07;2.70;;;;;;;;;;5135613;27;20113;-53
2021/03/27 07:22:16;;;;;;;3.45;1.48;;;;;;;;;;5134412;27;20035;-57
2021/03/27 07:24:50;;;;;;;6.03;2.88;;;;;;;;;;5131431;27;20473;-54
2021/03/27 07:27:21;;;;;;;6.07;3.33;;;;;;;;;;5134047;27;20026;-56
2021/03/27 07:29:47;;;;;;;;;;;;;;;;;;5132445;27;20458;-56
2021/03/27 07:32:31;;;;;;;11.00;6.25;;;;;;;;;;5131153;27;19911;-57
2021/03/27 07:34:56;;;;;;;5.13;1.73;;;;;;;;;;5131443;27;20039;-56
2021/03/27 07:37:43;;;;;;;3.55;1.40;;;;;;;;;;5132434;27;20050;-54
2021/03/27 07:40:08;;;;;;;4.55;1.45;;;;;;;;;;5131777;27;20094;-57
2021/03/27 07:42:42;;;;;;;3.70;1.40;;;;;;;;;;5133025;27;20129;-53
2021/03/27 07:45:33;;;;;;;4.82;1.27;;;;;;;;;;5132879;27;20107;-56
2021/03/27 07:48:38;;;;;;;2.80;1.02;;;;;;;;;;5131608;27;20027;-52
2021/03/27 07:51:51;;;;;;;4.70;1.65;;;;;;;;;;5130790;27;20063;-54
2021/03/27 07:54:31;;;;;;;4.38;1.48;;;;;;;;;;5130838;27;20521;-58
2021/03/27 07:57:42;;;;;;;4.03;1.15;;;;;;;;;;5130714;27;20034;-54
2021/03/27 08:00:16;;;;;;;5.45;1.77;;;;;;;;;;5116268;27;20023;-57
2021/03/27 08:02:42;;;;;;;7.82;1.33;;;;;;;;;;5133386;27;20035;-57
2021/03/27 08:05:19;;;;;;;5.88;2.00;;;;;;;;;;5141814;27;20031;-55
2021/03/27 08:08:18;;;;;;;7.43;1.35;;;;;;;;;;5136783;27;20364;-57
2021/03/27 08:11:02;;;;;;;10.10;1.65;;;;;;;;;;5135231;27;20044;-58
2021/03/27 08:14:07;;;;;;;7.22;2.22;;;;;;;;;;5134067;27;20067;-55
2021/03/27 08:16:53;;;;;;;3.33;1.45;;;;;;;;;;5138096;27;21725;-53
2021/03/27 08:19:24;;;;;;;9.07;1.88;;;;;;;;;;5136211;27;20062;-56
2021/03/27 08:22:09;;;;;;;;;;;;;;;;;;5139519;27;20113;-55
2021/03/27 08:24:56;;;;;;;5.72;1.50;;;;;;;;;;5135480;27;19935;-55
2021/03/27 08:27:43;;;;;;;5.55;1.75;;;;;;;;;;5134944;27;20023;-54
2021/03/27 08:30:33;;;;;;;6.68;1.65;;;;;;;;;;5134796;27;20042;-56
2021/03/27 08:33:23;;;;;;;5.72;1.90;;;;;;;;;;5133842;27;20531;-55
2021/03/27 08:36:25;;;;;;;9.77;1.38;;;;;;;;;;5134354;27;20405;-56
2021/03/27 08:39:35;;;;;;;11.82;1.90;;;;;;;;;;5134587;27;20173;-57
2021/03/27 08:42:16;;;;;;;5.70;1.50;;;;;;;;;;5135670;27;20106;-55
2021/03/27 08:44:59;;;;;;;6.90;2.05;;;;;;;;;;5136857;27;20059;-54
2021/03/27 08:47:50;;;;;;;9.88;2.30;;;;;;;;;;5140194;27;20077;-56
2021/03/27 08:50:34;;;;;;;8.55;2.17;;;;;;;;;;5135772;27;20114;-55
2021/03/27 08:53:17;;;;;;;7.65;1.30;;;;;;;;;;5141476;27;20533;-55
2021/03/27 08:56:10;;;;;;;4.63;2.28;;;;;;;;;;5134090;27;20039;-56
2021/03/27 08:58:55;;;;;;;5.72;1.40;;;;;;;;;;5134778;27;20065;-53
2021/03/27 09:01:25;;;;;;;6.55;1.83;;;;;;;;;;5136360;27;20502;-52
2021/03/27 09:04:15;;;;;;;8.20;1.77;;;;;;;;;;5135906;27;20023;-54
2021/03/27 09:06:56;;;;;;;5.68;1.70;;;;;;;;;;5136302;27;20120;-57
2021/03/27 09:09:53;;;;;;;5.97;1.57;;;;;;;;;;5134642;27;20130;-56
2021/03/27 09:12:23;;;;;;;7.38;1.80;;;;;;;;;;5134190;27;20035;-55
2021/03/27 09:15:26;;;;;;;7.65;2.38;;;;;;;;;;5133387;27;20031;-55
2021/03/27 09:18:22;;;;;;;6.18;2.05;;;;;;;;;;5134023;27;20364;-56
2021/03/27 09:21:12;;;;;;;13.32;3.05;;;;;;;;;;5140128;27;20060;-56
2021/03/27 09:23:59;;;;;;;6.82;1.73;;;;;;;;;;5134271;27;20031;-55
2021/03/27 09:26:45;;;;;;;13.48;2.30;;;;;;;;;;5134429;27;20089;-55
2021/03/27 09:29:20;;;;;;;7.38;2.05;;;;;;;;;;5136624;27;20118;-57
2021/03/27 09:31:54;;;;;;;12.50;2.20;;;;;;;;;;5115110;27;20027;-57
2021/03/27 09:34:22;;;;;;;8.20;2.30;;;;;;;;;;5133143;27;20039;-56
2021/03/27 09:37:06;;;;;;;5.15;2.13;;;;;;;;;;5133748;27;20077;-55
2021/03/27 09:39:53;;;;;;;17.95;2.97;;;;;;;;;;5132617;27;20337;-57
2021/03/27 09:42:47;;;;;;;5.45;1.80;;;;;;;;;;5135382;27;20038;-56
2021/03/27 09:45:31;;;;;;;9.38;2.13;;;;;;;;;;5136580;27;20417;-55
2021/03/27 09:48:31;;;;;;;6.10;2.55;;;;;;;;;;5136330;27;20053;-57
2021/03/27 09:51:08;;;;;;;8.50;2.40;;;;;;;;;;5140540;27;20023;-55
2021/03/27 09:54:03;;;;;;;6.55;1.88;;;;;;;;;;5135014;27;20023;-56
2021/03/27 09:57:05;;;;;;;4.75;1.60;;;;;;;;;;5132323;27;20081;-52
2021/03/27 09:59:46;;;;;;;3.70;1.65;;;;;;;;;;5137412;27;20057;-52
2021/03/27 10:02:29;;;;;;;7.25;1.83;;;;;;;;;;5133015;27;20106;-52
2021/03/27 10:05:25;;;;;;;6.53;1.42;;;;;;;;;;5136695;27;20027;-55
2021/03/27 10:08:15;;;;;;;25.23;2.08;;;;;;;;;;5133404;27;20023;-57
2021/03/27 10:11:02;;;;;;;4.78;1.70;;;;;;;;;;5133777;27;20096;-50
2021/03/27 10:13:47;;;;;;;5.38;1.63;;;;;;;;;;5122090;27;20047;-51
2021/03/27 10:16:15;;;;;;;6.20;2.03;;;;;;;;;;5132594;27;20414;-52
2021/03/27 10:18:49;;;;;;;9.98;1.70;;;;;;;;;;5132938;27;20070;-55
2021/03/27 10:21:20;;;;;;;4.20;1.50;;;;;;;;;;5133221;27;20034;-53
2021/03/27 10:23:53;;;;;;;;;;;;;;;;;;5134179;27;20047;-52
2021/03/27 10:26:25;;;;;;;9.98;1.40;;;;;;;;;;5136055;27;19911;-54
2021/03/27 10:29:00;;;;;;;4.28;1.50;;;;;;;;;;5134968;27;20066;-52
2021/03/27 10:31:36;;;;;;;3.85;1.15;;;;;;;;;;5133624;27;20117;-52
2021/03/27 10:34:28;;;;;;;4.28;1.33;;;;;;;;;;5136691;27;20064;-49
2021/03/27 10:37:19;;;;;;;4.28;1.60;;;;;;;;;;5132823;27;20027;-53
2021/03/27 10:40:00;;;;;;;6.18;1.65;;;;;;;;;;5132400;27;20109;-50
2021/03/27 10:42:34;;;;;;;6.75;1.42;;;;;;;;;;5132912;27;20035;-52
2021/03/27 10:45:09;;;;;;;3.92;1.20;;;;;;;;;;5133084;27;20049;-51
2021/03/27 10:47:40;;;;;;;5.82;1.75;;;;;;;;;;5134564;27;20039;-51
2021/03/27 10:50:18;;;;;;;9.77;2.40;;;;;;;;;;5135401;27;20031;-53
2021/03/27 10:52:50;;;;;;;5.03;1.33;;;;;;;;;;5134601;27;20074;-50
2021/03/27 10:55:29;;;;;;;5.80;1.75;;;;;;;;;;5135421;27;20391;-50
2021/03/27 10:58:25;;;;;;;7.18;2.00;;;;;;;;;;5138291;27;20030;-54
2021/03/27 11:01:12;;;;;;;6.40;1.65;;;;;;;;;;5132506;27;20023;-54
2021/03/27 11:04:05;;;;;;;5.50;1.35;;;;;;;;;;5137635;27;20031;-53
2021/03/27 11:07:07;;;;;;;11.00;1.92;;;;;;;;;;5134252;27;20031;-54
2021/03/27 11:09:50;;;;;;;4.88;1.52;;;;;;;;;;5137739;27;20644;-52
2021/03/27 11:12:35;;;;;;;5.95;1.63;;;;;;;;;;5134560;27;20114;-54
2021/03/27 11:15:25;;;;;;;4.13;1.30;;;;;;;;;;5133309;27;20523;-52
2021/03/27 11:18:36;;;;;;;15.00;2.47;;;;;;;;;;5131065;27;20035;-52
2021/03/27 11:21:17;;;;;;;7.07;1.25;;;;;;;;;;5092701;27;20051;-53
2021/03/27 11:24:01;;;;;;;;;;;;;;;;;;5135087;27;20027;-52
2021/03/27 11:26:35;;;;;;;9.43;1.55;;;;;;;;;;5134024;27;19911;-53
2021/03/27 11:29:04;;;;;;;7.35;1.50;;;;;;;;;;5133144;27;20035;-53
2021/03/27 11:31:49;;;;;;;4.40;1.55;;;;;;;;;;5138825;27;20043;-53
2021/03/27 11:34:23;;;;;;;4.53;1.73;;;;;;;;;;5132279;27;20364;-55
2021/03/27 11:37:23;;;;;;;5.25;1.58;;;;;;;;;;5132612;27;20035;-52
2021/03/27 11:40:00;;;;;;;5.47;1.20;;;;;;;;;;5130825;27;20556;-54
2021/03/27 11:42:32;;;;;;;5.78;1.25;;;;;;;;;;5131648;27;20035;-54
2021/03/27 11:45:00;;;;;;;3.75;1.48;;;;;;;;;;5131388;27;20076;-50
2021/03/27 11:47:45;;;;;;;11.35;2.38;;;;;;;;;;5134560;27;20031;-54
2021/03/27 11:50:23;;;;;;;3.50;1.40;;;;;;;;;;5131627;27;20047;-53
2021/03/27 11:53:11;;;;;;;4.70;1.08;;;;;;;;;;5133449;27;20031;-51
2021/03/27 11:55:46;;;;;;;3.28;1.35;;;;;;;;;;5130706;27;20026;-52
2021/03/27 12:01:39;;;;;;;5.13;1.45;;;;;;;;;;5129929;27;20035;-52
2021/03/27 12:04:15;;;;;;;4.75;1.40;;;;;;;;;;5137454;27;20380;-52
2021/03/27 12:07:07;;;;;;;4.60;1.73;;;;;;;;;;5137990;27;20046;-55
2021/03/27 12:09:53;;;;;;;6.38;1.85;;;;;;;;;;5123743;27;20043;-58
2021/03/27 12:13:00;;;;;;;5.30;1.52;;;;;;;;;;5139006;27;20046;-56
2021/03/27 12:15:35;;;;;;;9.90;1.90;;;;;;;;;;5034831;28;20025;-52
2021/03/27 12:18:06;;;;;;;9.70;1.80;;;;;;;;;;5126345;27;20043;-58
2021/03/27 12:20:51;;;;;;;;;;;;;;;;;;5124343;27;20401;-52
2021/03/27 12:23:44;;;;;;;6.63;1.60;;;;;;;;;;5140638;27;19965;-54
2021/03/27 12:26:26;;;;;;;9.95;3.03;;;;;;;;;;5117896;27;20031;-55
2021/03/27 12:29:11;;;;;;;5.38;1.90;;;;;;;;;;5135994;27;20122;-49
2021/03/27 12:32:20;;;;;;;5.20;1.70;;;;;;;;;;5136751;27;20114;-52
2021/03/27 12:35:01;;;;;;;4.43;1.52;;;;;;;;;;5133375;27;20066;-51
2021/03/27 12:37:39;;;;;;;7.13;1.83;;;;;;;;;;5137672;27;20031;-54
2021/03/27 12:40:22;;;;;;;4.78;1.40;;;;;;;;;;5140296;27;20071;-54
2021/03/27 12:42:56;;;;;;;5.10;1.70;;;;;;;;;;5127163;27;20035;-54
2021/03/27 12:45:26;;;;;;;11.52;1.95;;;;;;;;;;5131605;27;20031;-54
2021/03/27 12:48:17;;;;;;;5.32;1.52;;;;;;;;;;5133905;27;20039;-53
2021/03/27 12:51:01;;;;;;;5.45;1.75;;;;;;;;;;5138442;27;20028;-51
2021/03/27 12:54:01;;;;;;;8.55;1.25;;;;;;;;;;5141203;27;20103;-52
2021/03/27 12:56:50;;;;;;;4.25;1.35;;;;;;;;;;5141280;27;20027;-56
2021/03/27 12:59:46;;;;;;;5.97;1.52;;;;;;;;;;5143362;27;20532;-56
2021/03/27 13:02:30;;;;;;;6.03;1.70;;;;;;;;;;5140368;27;20047;-53
2021/03/27 13:05:29;;;;;;;3.30;1.15;;;;;;;;;;5142446;27;20042;-52
2021/03/27 13:08:12;;;;;;;6.50;2.00;;;;;;;;;;5142085;27;20039;-54
2021/03/27 13:11:16;;;;;;;4.97;1.83;;;;;;;;;;5135976;27;20039;-52
2021/03/27 13:13:53;;;;;;;8.73;2.17;;;;;;;;;;5131358;27;20055;-54
2021/03/27 13:16:24;;;;;;;5.43;1.35;;;;;;;;;;5131221;27;20456;-52
2021/03/27 13:19:08;;;;;;;7.40;1.65;;;;;;;;;;5132134;27;20038;-50
2021/03/27 13:21:48;;;;;;;5.15;1.30;;;;;;;;;;5132045;27;20030;-50
2021/03/27 13:24:24;;;;;;;5.07;1.52;;;;;;;;;;5136596;27;20041;-53
2021/03/27 13:27:03;;;;;;;4.25;1.30;;;;;;;;;;5130212;27;20081;-50
2021/03/27 13:29:37;;;;;;;4.45;1.55;;;;;;;;;;5135156;27;20590;-55
2021/03/27 13:32:15;;;;;;;4.85;1.98;;;;;;;;;;5134845;27;20035;-56
2021/03/27 13:34:46;;;;;;;5.45;2.50;;;;;;;;;;5134453;27;20512;-55
2021/03/27 13:37:26;;;;;;;3.50;1.23;;;;;;;;;;5133581;27;20460;-51
2021/03/27 13:40:17;;;;;;;6.03;1.50;;;;;;;;;;5134173;27;20023;-50
2021/03/27 13:42:54;;;;;;;4.40;1.20;;;;;;;;;;5136983;27;20168;-53
2021/03/27 13:45:49;;;;;;;9.57;1.45;;;;;;;;;;5135509;27;20479;-50
2021/03/27 13:48:24;;;;;;;6.07;1.38;;;;;;;;;;5135678;27;20097;-51
2021/03/27 13:50:58;;;;;;;8.00;1.38;;;;;;;;;;5136360;27;20027;-54
2021/03/27 13:53:29;;;;;;;3.58;1.55;;;;;;;;;;5138107;27;20043;-53
2021/03/27 13:56:20;;;;;;;6.60;1.55;;;;;;;;;;5133178;27;20134;-55
2021/03/27 13:59:18;;;;;;;5.50;1.38;;;;;;;;;;5133563;27;20034;-58
2021/03/27 14:01:48;;;;;;;4.32;1.42;;;;;;;;;;5136360;27;20035;-55
2021/03/27 14:04:28;;;;;;;11.68;1.55;;;;;;;;;;5140416;27;20401;-52
2021/03/27 14:07:12;;;;;;;3.75;1.20;;;;;;;;;;5132330;27;20058;-53
2021/03/27 14:10:08;;;;;;;4.65;1.33;;;;;;;;;;5132471;27;20035;-53
2021/03/27 14:13:20;;;;;;;3.05;1.02;;;;;;;;;;5131575;27;20027;-53
2021/03/27 14:15:58;;;;;;;2.60;1.08;;;;;;;;;;5134406;27;20122;-54
2021/03/27 14:18:51;;;;;;;2.03;0.70;;;;;;;;;;5131992;27;20038;-55
2021/03/27 14:21:25;;;;;;;3.40;1.10;;;;;;;;;;5131620;27;20042;-56
2021/03/27 14:24:16;;;;;;;1.98;0.70;;;;;;;;;;5137999;27;20414;-51
2021/03/27 14:27:01;;;;;;;2.60;1.05;;;;;;;;;;5132755;27;20425;-51
2021/03/27 14:29:45;;;;;;;3.80;1.15;;;;;;;;;;5134646;27;20035;-52
2021/03/27 14:32:38;;;;;;;3.38;1.27;;;;;;;;;;5133067;27;20023;-54
2021/03/27 14:35:32;;;;;;;4.40;1.23;;;;;;;;;;5117623;27;20042;-56
2021/03/27 14:38:39;;;;;;;2.25;1.05;;;;;;;;;;5135435;27;20038;-55
2021/03/27 14:41:17;;;;;;;2.53;1.10;;;;;;;;;;5135406;27;20360;-55
2021/03/27 14:43:54;;;;;;;1.77;0.73;;;;;;;;;;5131332;27;20031;-53
2021/03/27 14:46:53;;;;;;;4.60;0.82;;;;;;;;;;5132775;27;20474;-56
2021/03/27 14:49:51;;;;;;;6.10;1.88;;;;;;;;;;5119589;27;20122;-53
2021/03/27 14:52:25;;;;;;;3.42;1.30;;;;;;;;;;5131440;27;20046;-53
2021/03/27 14:55:16;;;;;;;2.20;0.80;;;;;;;;;;5135702;27;20079;-54
2021/03/27 14:58:00;;;;;;;4.00;1.00;;;;;;;;;;5134173;27;20050;-52
2021/03/27 15:00:51;;;;;;;3.92;1.10;;;;;;;;;;5132641;27;20039;-49
2021/03/27 15:03:28;;;;;;;2.97;0.98;;;;;;;;;;5105935;27;20123;-53
2021/03/27 15:06:20;;;;;;;1.98;0.80;;;;;;;;;;5135641;27;20495;-50
2021/03/27 15:08:55;;;;;;;1.50;0.52;;;;;;;;;;5135254;27;20047;-51
2021/03/27 15:11:58;;;;;;;1.92;0.85;;;;;;;;;;5130264;27;20053;-56
2021/03/27 15:14:50;;;;;;;3.47;0.93;;;;;;;;;;5130573;27;20503;-53
2021/03/27 15:17:46;;;;;;;3.45;1.00;;;;;;;;;;5131313;27;20110;-53
2021/03/27 15:20:55;;;;;;;4.47;1.95;;;;;;;;;;5132066;27;20041;-53
2021/03/27 15:23:29;;;;;;;3.67;1.33;;;;;;;;;;5049963;28;20065;-54
2021/03/27 15:29:25;;;;;;;2.25;0.93;;;;;;;;;;5118873;27;20361;-54
2021/03/27 15:32:06;;;;;;;8.50;1.55;;;;;;;;;;5132134;27;20074;-54
2021/03/27 15:35:03;;;;;;;5.60;1.43;;;;;;;;;;5132406;27;20386;-52
2021/03/27 15:38:07;;;;;;;4.50;1.23;;;;;;;;;;5098421;27;20157;-52
2021/03/27 15:40:46;;;;;;;4.93;1.52;;;;;;;;;;5129920;27;20043;-50
2021/03/27 15:43:24;;;;;;;4.38;1.80;;;;;;;;;;5131191;27;20103;-49
2021/03/27 15:46:11;;;;;;;6.68;2.08;;;;;;;;;;5132069;27;20031;-50
2021/03/27 15:49:18;;;;;;;4.80;1.70;;;;;;;;;;5132269;27;20031;-52
2021/03/27 15:51:53;;;;;;;5.05;1.85;;;;;;;;;;5102696;27;20058;-54
2021/03/27 15:54:39;;;;;;;10.90;2.55;;;;;;;;;;5135952;27;20171;-55
2021/03/27 15:57:05;;;;;;;11.05;4.65;;;;;;;;;;5137318;27;20325;-49
2021/03/27 15:59:54;;;;;;;8.23;2.80;;;;;;;;;;5133964;27;20042;-48
2021/03/27 16:02:36;;;;;;;18.55;12.35;;;;;;;;;;5129698;27;20457;-52
2021/03/27 16:05:24;;;;;;;27.90;9.98;;;;;;;;;;5132036;27;20429;-52
2021/03/27 16:07:56;;;;;;;16.13;6.55;;;;;;;;;;5136424;27;20363;-51
2021/03/27 16:10:27;;;;;;;10.98;5.40;;;;;;;;;;5134385;27;20035;-54
2021/03/27 16:13:05;;;;;;;13.52;6.78;;;;;;;;;;5130675;27;20456;-54
2021/03/27 16:15:37;;;;;;;38.35;28.40;;;;;;;;;;5135276;27;20084;-55
2021/03/27 16:18:24;;;;;;;42.50;29.25;;;;;;;;;;5133564;27;20037;-54
2021/03/27 16:21:02;;;;;;;206.27;185.75;;;;;;;;;;5131131;27;20039;-53